GAV2157 TIST-KTPA
Flight info
| Callsign | GAV2157 |
|---|---|
| Flight time | 2h 53m |
| Altitude | 36000 |
| Route | PALCO7 PALCO RTE6 SJU DCT ACONY Y280 RUTOC/N0464F380 Y280 OCTAL BLFRG3 |
| Aircraft | B721/M-SDFGHRWY/C |
Departure
| Time | 2026-04-21 15:16 |
|---|---|
| Airport | Cyril E. King Airport (TIST) |
Arrival
| Time | 2026-04-21 18:09 |
|---|---|
| Airport | Tampa International Airport (KTPA) |
| Time | Latitude | Longitude | Altitude | Speed | Heading |
|---|---|---|---|---|---|
| 2026-04-21 15:05 | 18.33486 | -64.97320 | 29 ft | 0 kts | 46° |
| 2026-04-21 15:10 | 18.33471 | -64.97335 | 31 ft | 4 kts | 35° |
| 2026-04-21 15:10 | 18.33449 | -64.97346 | 31 ft | 4 kts | 1° |
| 2026-04-21 15:10 | 18.33430 | -64.97339 | 31 ft | 1 kts | 313° |
| 2026-04-21 15:12 | 18.33440 | -64.97351 | 31 ft | 11 kts | 313° |
| 2026-04-21 15:12 | 18.33520 | -64.97392 | 31 ft | 13 kts | 355° |
| 2026-04-21 15:13 | 18.33605 | -64.97408 | 31 ft | 13 kts | 314° |
| 2026-04-21 15:13 | 18.33622 | -64.97497 | 31 ft | 12 kts | 274° |
| 2026-04-21 15:13 | 18.33620 | -64.97587 | 31 ft | 14 kts | 263° |
| 2026-04-21 15:13 | 18.33603 | -64.97745 | 31 ft | 23 kts | 265° |
| 2026-04-21 15:14 | 18.33591 | -64.97913 | 31 ft | 22 kts | 266° |
| 2026-04-21 15:14 | 18.33582 | -64.98074 | 31 ft | 22 kts | 266° |
| 2026-04-21 15:14 | 18.33582 | -64.98254 | 31 ft | 21 kts | 270° |
| 2026-04-21 15:14 | 18.33606 | -64.98322 | 31 ft | 10 kts | 327° |
| 2026-04-21 15:15 | 18.33671 | -64.98326 | 29 ft | 10 kts | 38° |
| 2026-04-21 15:15 | 18.33691 | -64.98239 | 29 ft | 22 kts | 87° |
| 2026-04-21 15:15 | 18.33697 | -64.97793 | 32 ft | 100 kts | 85° |
| 2026-04-21 15:15 | 18.33746 | -64.96820 | 71 ft | 162 kts | 90° |
| 2026-04-21 15:16 | 18.33747 | -64.95575 | 754 ft | 176 kts | 93° |
| 2026-04-21 15:16 | 18.33454 | -64.94283 | 1540 ft | 195 kts | 128° |
| 2026-04-21 15:16 | 18.32325 | -64.93501 | 2309 ft | 208 kts | 161° |
| 2026-04-21 15:16 | 18.30810 | -64.93358 | 2531 ft | 235 kts | 188° |
| 2026-04-21 15:17 | 18.29251 | -64.94114 | 2769 ft | 264 kts | 223° |
| 2026-04-21 15:17 | 18.28080 | -64.95647 | 3442 ft | 272 kts | 234° |
| 2026-04-21 15:17 | 18.26993 | -64.97296 | 4223 ft | 276 kts | 234° |
| 2026-04-21 15:17 | 18.25982 | -64.99025 | 5033 ft | 279 kts | 248° |
| 2026-04-21 15:18 | 18.25660 | -65.01033 | 5807 ft | 282 kts | 274° |
| 2026-04-21 15:18 | 18.25913 | -65.03098 | 6541 ft | 286 kts | 279° |
| 2026-04-21 15:18 | 18.26253 | -65.05160 | 7305 ft | 287 kts | 281° |
| 2026-04-21 15:18 | 18.26602 | -65.07228 | 8104 ft | 287 kts | 281° |
| 2026-04-21 15:19 | 18.26947 | -65.09305 | 8883 ft | 288 kts | 281° |
| 2026-04-21 15:19 | 18.27285 | -65.11387 | 9662 ft | 290 kts | 281° |
| 2026-04-21 15:19 | 18.27622 | -65.13498 | 10310 ft | 296 kts | 281° |
| 2026-04-21 15:19 | 18.27977 | -65.15739 | 10522 ft | 318 kts | 281° |
| 2026-04-21 15:20 | 18.28344 | -65.18082 | 10681 ft | 339 kts | 281° |
| 2026-04-21 15:20 | 18.28739 | -65.20609 | 10831 ft | 359 kts | 281° |
| 2026-04-21 15:20 | 18.29152 | -65.23262 | 10975 ft | 376 kts | 280° |
| 2026-04-21 15:20 | 18.29627 | -65.26013 | 11338 ft | 384 kts | 283° |
| 2026-04-21 15:21 | 18.30191 | -65.28770 | 11967 ft | 385 kts | 283° |
| 2026-04-21 15:21 | 18.30782 | -65.31528 | 12542 ft | 388 kts | 283° |
| 2026-04-21 15:21 | 18.31274 | -65.33816 | 12934 ft | 392 kts | 283° |
| 2026-04-21 15:21 | 18.31872 | -65.36625 | 13443 ft | 395 kts | 283° |
| 2026-04-21 15:22 | 18.32084 | -65.37632 | 13637 ft | 395 kts | 283° |
| 2026-04-21 15:22 | 18.32665 | -65.40416 | 14105 ft | 398 kts | 283° |
| 2026-04-21 15:22 | 18.33222 | -65.43107 | 14547 ft | 400 kts | 283° |
| 2026-04-21 15:22 | 18.33813 | -65.45975 | 15002 ft | 402 kts | 283° |
| 2026-04-21 15:23 | 18.34404 | -65.48854 | 15437 ft | 404 kts | 283° |
| 2026-04-21 15:23 | 18.34998 | -65.51753 | 15868 ft | 406 kts | 283° |
| 2026-04-21 15:23 | 18.35595 | -65.54669 | 16280 ft | 409 kts | 283° |
| 2026-04-21 15:23 | 18.36196 | -65.57600 | 16726 ft | 410 kts | 283° |
| 2026-04-21 15:24 | 18.36799 | -65.60547 | 17173 ft | 412 kts | 283° |
| 2026-04-21 15:24 | 18.37418 | -65.63571 | 17555 ft | 415 kts | 282° |
| 2026-04-21 15:25 | 18.37956 | -65.66208 | 17901 ft | 417 kts | 283° |
| 2026-04-21 15:25 | 18.38565 | -65.69203 | 18301 ft | 419 kts | 283° |
| 2026-04-21 15:26 | 18.39177 | -65.72211 | 18662 ft | 420 kts | 282° |
| 2026-04-21 15:26 | 18.39783 | -65.75199 | 19018 ft | 422 kts | 282° |
| 2026-04-21 15:26 | 18.40397 | -65.78222 | 19361 ft | 423 kts | 282° |
| 2026-04-21 15:26 | 18.41013 | -65.81261 | 19704 ft | 425 kts | 282° |
| 2026-04-21 15:27 | 18.41630 | -65.84305 | 20071 ft | 425 kts | 282° |
| 2026-04-21 15:27 | 18.42239 | -65.87313 | 20427 ft | 426 kts | 282° |
| 2026-04-21 15:27 | 18.42865 | -65.90406 | 20774 ft | 427 kts | 282° |
| 2026-04-21 15:27 | 18.43484 | -65.93470 | 21101 ft | 428 kts | 282° |
| 2026-04-21 15:28 | 18.44280 | -65.96449 | 21394 ft | 430 kts | 291° |
| 2026-04-21 15:28 | 18.45635 | -65.99310 | 21722 ft | 432 kts | 300° |
| 2026-04-21 15:28 | 18.47358 | -66.01857 | 22041 ft | 434 kts | 309° |
| 2026-04-21 15:28 | 18.49488 | -66.04126 | 22343 ft | 436 kts | 314° |
| 2026-04-21 15:29 | 18.51702 | -66.06326 | 22622 ft | 438 kts | 315° |
| 2026-04-21 15:29 | 18.53938 | -66.08525 | 22879 ft | 440 kts | 315° |
| 2026-04-21 15:29 | 18.56176 | -66.10735 | 23142 ft | 441 kts | 314° |
| 2026-04-21 15:29 | 18.58414 | -66.12962 | 23422 ft | 442 kts | 314° |
| 2026-04-21 15:30 | 18.60642 | -66.15198 | 23679 ft | 443 kts | 314° |
| 2026-04-21 15:30 | 18.62877 | -66.17450 | 23893 ft | 444 kts | 314° |
| 2026-04-21 15:30 | 18.65110 | -66.19709 | 24125 ft | 445 kts | 314° |
| 2026-04-21 15:30 | 18.67350 | -66.21976 | 24359 ft | 445 kts | 314° |
| 2026-04-21 15:31 | 18.69561 | -66.24216 | 24584 ft | 445 kts | 314° |
| 2026-04-21 15:31 | 18.71796 | -66.26481 | 24802 ft | 446 kts | 314° |
| 2026-04-21 15:31 | 18.74032 | -66.28747 | 25023 ft | 446 kts | 314° |
| 2026-04-21 15:31 | 18.76278 | -66.31024 | 25233 ft | 447 kts | 314° |
| 2026-04-21 15:32 | 18.78523 | -66.33301 | 25430 ft | 448 kts | 314° |
| 2026-04-21 15:32 | 18.80771 | -66.35581 | 25625 ft | 449 kts | 314° |
| 2026-04-21 15:32 | 18.83019 | -66.37862 | 25834 ft | 449 kts | 314° |
| 2026-04-21 15:32 | 18.85277 | -66.40155 | 26045 ft | 449 kts | 314° |
| 2026-04-21 15:33 | 18.87528 | -66.42442 | 26241 ft | 450 kts | 314° |
| 2026-04-21 15:33 | 18.89788 | -66.44738 | 26417 ft | 451 kts | 314° |
| 2026-04-21 15:33 | 18.92048 | -66.47036 | 26604 ft | 452 kts | 313° |
| 2026-04-21 15:33 | 18.94198 | -66.49442 | 26790 ft | 451 kts | 309° |
| 2026-04-21 15:34 | 18.96241 | -66.51959 | 26971 ft | 451 kts | 308° |
| 2026-04-21 15:34 | 18.98248 | -66.54503 | 27171 ft | 451 kts | 308° |
| 2026-04-21 15:34 | 18.99696 | -66.56351 | 27356 ft | 450 kts | 308° |
| 2026-04-21 15:34 | 19.01695 | -66.58903 | 27665 ft | 447 kts | 308° |
| 2026-04-21 15:35 | 19.03676 | -66.61422 | 27984 ft | 445 kts | 308° |
| 2026-04-21 15:35 | 19.05660 | -66.63932 | 28279 ft | 443 kts | 308° |
| 2026-04-21 15:35 | 19.07639 | -66.66428 | 28556 ft | 442 kts | 308° |
| 2026-04-21 15:35 | 19.09617 | -66.68918 | 28859 ft | 441 kts | 308° |
| 2026-04-21 15:36 | 19.11565 | -66.71367 | 29177 ft | 439 kts | 308° |
| 2026-04-21 15:36 | 19.12867 | -66.73004 | 29405 ft | 437 kts | 308° |
| 2026-04-21 15:36 | 19.14821 | -66.75462 | 29737 ft | 435 kts | 308° |
| 2026-04-21 15:36 | 19.16763 | -66.77904 | 30024 ft | 434 kts | 308° |
| 2026-04-21 15:37 | 19.20674 | -66.82829 | 30016 ft | 436 kts | 308° |
| 2026-04-21 15:37 | 19.24559 | -66.87724 | 30022 ft | 433 kts | 308° |
| 2026-04-21 15:38 | 19.28423 | -66.92598 | 30021 ft | 431 kts | 308° |
| 2026-04-21 15:38 | 19.32271 | -66.97456 | 30024 ft | 430 kts | 308° |
| 2026-04-21 15:39 | 19.36111 | -67.02307 | 30022 ft | 430 kts | 308° |
| 2026-04-21 15:39 | 19.39952 | -67.07163 | 30023 ft | 430 kts | 308° |
| 2026-04-21 15:40 | 19.43799 | -67.12032 | 30027 ft | 431 kts | 308° |
| 2026-04-21 15:40 | 19.47658 | -67.16919 | 30023 ft | 432 kts | 308° |
| 2026-04-21 15:41 | 19.51525 | -67.21820 | 30023 ft | 433 kts | 308° |
| 2026-04-21 15:41 | 19.55397 | -67.26731 | 30022 ft | 434 kts | 308° |
| 2026-04-21 15:42 | 19.59278 | -67.31658 | 30024 ft | 435 kts | 308° |
| 2026-04-21 15:42 | 19.63129 | -67.36550 | 30023 ft | 435 kts | 308° |
| 2026-04-21 15:43 | 19.67005 | -67.41479 | 30019 ft | 434 kts | 308° |
| 2026-04-21 15:43 | 19.70898 | -67.46433 | 30019 ft | 434 kts | 307° |
| 2026-04-21 15:44 | 19.74765 | -67.51359 | 30020 ft | 433 kts | 307° |
| 2026-04-21 15:44 | 19.78622 | -67.56275 | 30020 ft | 433 kts | 307° |
| 2026-04-21 15:45 | 19.82467 | -67.61180 | 30021 ft | 432 kts | 307° |
| 2026-04-21 15:45 | 19.86286 | -67.66057 | 30019 ft | 431 kts | 307° |
| 2026-04-21 15:46 | 19.90118 | -67.70954 | 30023 ft | 431 kts | 307° |
| 2026-04-21 15:46 | 19.93951 | -67.75856 | 30023 ft | 430 kts | 307° |
| 2026-04-21 15:47 | 19.97774 | -67.80750 | 30024 ft | 430 kts | 307° |
| 2026-04-21 15:47 | 20.01592 | -67.85641 | 30024 ft | 429 kts | 307° |
| 2026-04-21 15:48 | 20.05407 | -67.90533 | 30019 ft | 429 kts | 307° |
| 2026-04-21 15:48 | 20.09215 | -67.95420 | 30019 ft | 429 kts | 307° |
| 2026-04-21 15:49 | 20.13024 | -68.00314 | 30023 ft | 429 kts | 307° |
| 2026-04-21 15:49 | 20.16835 | -68.05212 | 30022 ft | 429 kts | 307° |
| 2026-04-21 15:50 | 20.20638 | -68.10105 | 30024 ft | 429 kts | 307° |
| 2026-04-21 15:50 | 20.24444 | -68.15006 | 30024 ft | 429 kts | 307° |
| 2026-04-21 15:51 | 20.28250 | -68.19911 | 30027 ft | 429 kts | 307° |
| 2026-04-21 15:51 | 20.32056 | -68.24821 | 30022 ft | 429 kts | 307° |
| 2026-04-21 15:52 | 20.35856 | -68.29727 | 30027 ft | 429 kts | 307° |
| 2026-04-21 15:52 | 20.39660 | -68.34643 | 30024 ft | 429 kts | 307° |
| 2026-04-21 15:53 | 20.43454 | -68.39562 | 30024 ft | 429 kts | 306° |
| 2026-04-21 15:53 | 20.46265 | -68.44070 | 30026 ft | 426 kts | 300° |
| 2026-04-21 15:54 | 20.49388 | -68.49450 | 30025 ft | 426 kts | 300° |
| 2026-04-21 15:54 | 20.52522 | -68.54830 | 30024 ft | 426 kts | 300° |
| 2026-04-21 15:55 | 20.55661 | -68.60194 | 30026 ft | 426 kts | 300° |
| 2026-04-21 15:55 | 20.58804 | -68.65561 | 30024 ft | 426 kts | 300° |
| 2026-04-21 15:56 | 20.61949 | -68.70932 | 30024 ft | 426 kts | 300° |
| 2026-04-21 15:56 | 20.65103 | -68.76326 | 30024 ft | 425 kts | 300° |
| 2026-04-21 15:57 | 20.68236 | -68.81689 | 30023 ft | 425 kts | 300° |
| 2026-04-21 15:57 | 20.71365 | -68.87050 | 30026 ft | 425 kts | 300° |
| 2026-04-21 15:58 | 20.74489 | -68.92408 | 30029 ft | 425 kts | 300° |
| 2026-04-21 15:58 | 20.77612 | -68.97770 | 30026 ft | 424 kts | 300° |
| 2026-04-21 15:59 | 20.80733 | -69.03133 | 30030 ft | 424 kts | 300° |
| 2026-04-21 15:59 | 20.83845 | -69.08486 | 30024 ft | 424 kts | 300° |
| 2026-04-21 16:00 | 20.86979 | -69.13882 | 30018 ft | 424 kts | 300° |
| 2026-04-21 16:00 | 20.90090 | -69.19235 | 30031 ft | 424 kts | 300° |
| 2026-04-21 16:01 | 20.93205 | -69.24592 | 30027 ft | 424 kts | 300° |
| 2026-04-21 16:01 | 20.96314 | -69.29942 | 30029 ft | 423 kts | 300° |
| 2026-04-21 16:02 | 20.99422 | -69.35299 | 30028 ft | 423 kts | 299° |
| 2026-04-21 16:02 | 21.02102 | -69.39924 | 30032 ft | 423 kts | 299° |
| 2026-04-21 16:03 | 21.05201 | -69.45277 | 30030 ft | 423 kts | 299° |
| 2026-04-21 16:03 | 21.08296 | -69.50627 | 30035 ft | 422 kts | 299° |
| 2026-04-21 16:04 | 21.11384 | -69.55969 | 30029 ft | 422 kts | 299° |
| 2026-04-21 16:04 | 21.14474 | -69.61322 | 30029 ft | 422 kts | 299° |
| 2026-04-21 16:05 | 21.17557 | -69.66667 | 30029 ft | 422 kts | 299° |
| 2026-04-21 16:05 | 21.20638 | -69.72014 | 30024 ft | 421 kts | 299° |
| 2026-04-21 16:06 | 21.23720 | -69.77366 | 30025 ft | 421 kts | 299° |
| 2026-04-21 16:06 | 21.26778 | -69.82682 | 30033 ft | 422 kts | 299° |
| 2026-04-21 16:07 | 21.29858 | -69.88040 | 30030 ft | 422 kts | 299° |
| 2026-04-21 16:07 | 21.32933 | -69.93397 | 30028 ft | 422 kts | 299° |
| 2026-04-21 16:08 | 21.37046 | -70.00570 | 30026 ft | 422 kts | 299° |
| 2026-04-21 16:09 | 21.40104 | -70.05911 | 30031 ft | 422 kts | 299° |
| 2026-04-21 16:09 | 21.43176 | -70.11279 | 30026 ft | 422 kts | 299° |
| 2026-04-21 16:10 | 21.46270 | -70.16693 | 30031 ft | 422 kts | 299° |
| 2026-04-21 16:10 | 21.49343 | -70.22075 | 30031 ft | 422 kts | 299° |
| 2026-04-21 16:11 | 21.52395 | -70.27424 | 30031 ft | 422 kts | 299° |
| 2026-04-21 16:11 | 21.55463 | -70.32809 | 30032 ft | 422 kts | 299° |
| 2026-04-21 16:12 | 21.58531 | -70.38198 | 30035 ft | 422 kts | 299° |
| 2026-04-21 16:12 | 21.61595 | -70.43584 | 30034 ft | 422 kts | 299° |
| 2026-04-21 16:13 | 21.64677 | -70.49009 | 30037 ft | 422 kts | 299° |
| 2026-04-21 16:13 | 21.67735 | -70.54396 | 30035 ft | 422 kts | 299° |
| 2026-04-21 16:14 | 21.70793 | -70.59789 | 30035 ft | 422 kts | 298° |
| 2026-04-21 16:14 | 21.73829 | -70.65147 | 30033 ft | 422 kts | 298° |
| 2026-04-21 16:15 | 21.76884 | -70.70545 | 30034 ft | 422 kts | 298° |
| 2026-04-21 16:15 | 21.79937 | -70.75945 | 30033 ft | 422 kts | 298° |
| 2026-04-21 16:16 | 21.82987 | -70.81346 | 30038 ft | 422 kts | 298° |
| 2026-04-21 16:16 | 21.86035 | -70.86747 | 30034 ft | 422 kts | 298° |
| 2026-04-21 16:17 | 21.89078 | -70.92145 | 30034 ft | 422 kts | 298° |
| 2026-04-21 16:17 | 21.92116 | -70.97541 | 30038 ft | 422 kts | 298° |
| 2026-04-21 16:18 | 21.95159 | -71.02950 | 30037 ft | 422 kts | 298° |
| 2026-04-21 16:18 | 21.97664 | -71.07408 | 30042 ft | 422 kts | 298° |
| 2026-04-21 16:19 | 22.00701 | -71.12816 | 30039 ft | 422 kts | 298° |
| 2026-04-21 16:19 | 22.03740 | -71.18233 | 30036 ft | 422 kts | 298° |
| 2026-04-21 16:20 | 22.06778 | -71.23655 | 30037 ft | 422 kts | 298° |
| 2026-04-21 16:20 | 22.09781 | -71.29019 | 30042 ft | 423 kts | 298° |
| 2026-04-21 16:21 | 22.12817 | -71.34449 | 30042 ft | 423 kts | 298° |
| 2026-04-21 16:21 | 22.15856 | -71.39889 | 30045 ft | 423 kts | 298° |
| 2026-04-21 16:22 | 22.18912 | -71.45364 | 30047 ft | 423 kts | 298° |
| 2026-04-21 16:22 | 22.21943 | -71.50801 | 30039 ft | 423 kts | 298° |
| 2026-04-21 16:23 | 22.24973 | -71.56240 | 30043 ft | 423 kts | 298° |
| 2026-04-21 16:23 | 22.28003 | -71.61686 | 30040 ft | 423 kts | 298° |
| 2026-04-21 16:24 | 22.31026 | -71.67126 | 30043 ft | 423 kts | 298° |
| 2026-04-21 16:24 | 22.34052 | -71.72576 | 30050 ft | 423 kts | 298° |
| 2026-04-21 16:25 | 22.37078 | -71.78032 | 30043 ft | 423 kts | 298° |
| 2026-04-21 16:25 | 22.40101 | -71.83487 | 30044 ft | 423 kts | 298° |
| 2026-04-21 16:26 | 22.43122 | -71.88946 | 30046 ft | 423 kts | 298° |
| 2026-04-21 16:26 | 22.46125 | -71.94377 | 30046 ft | 423 kts | 298° |
| 2026-04-21 16:27 | 22.49143 | -71.99841 | 30047 ft | 423 kts | 298° |
| 2026-04-21 16:27 | 22.51712 | -72.04498 | 30053 ft | 423 kts | 298° |
| 2026-04-21 16:28 | 22.54733 | -72.09976 | 30049 ft | 423 kts | 298° |
| 2026-04-21 16:28 | 22.57747 | -72.15449 | 30050 ft | 423 kts | 298° |
| 2026-04-21 16:29 | 22.60271 | -72.20038 | 30049 ft | 423 kts | 298° |
| 2026-04-21 16:29 | 22.63772 | -72.26409 | 30050 ft | 423 kts | 298° |
| 2026-04-21 16:30 | 22.66782 | -72.31891 | 30056 ft | 423 kts | 298° |
| 2026-04-21 16:30 | 22.69809 | -72.37412 | 30047 ft | 423 kts | 298° |
| 2026-04-21 16:31 | 22.72816 | -72.42902 | 30051 ft | 423 kts | 298° |
| 2026-04-21 16:31 | 22.75819 | -72.48389 | 30048 ft | 423 kts | 298° |
| 2026-04-21 16:32 | 22.78820 | -72.53880 | 30053 ft | 423 kts | 298° |
| 2026-04-21 16:32 | 22.81819 | -72.59372 | 30057 ft | 424 kts | 298° |
| 2026-04-21 16:33 | 22.84818 | -72.64871 | 30050 ft | 424 kts | 298° |
| 2026-04-21 16:33 | 22.87818 | -72.70377 | 30054 ft | 424 kts | 298° |
| 2026-04-21 16:34 | 22.90816 | -72.75887 | 30052 ft | 424 kts | 298° |
| 2026-04-21 16:34 | 22.93812 | -72.81398 | 30054 ft | 424 kts | 298° |
| 2026-04-21 16:35 | 22.96807 | -72.86914 | 30061 ft | 424 kts | 298° |
| 2026-04-21 16:35 | 22.99809 | -72.92446 | 30062 ft | 424 kts | 298° |
| 2026-04-21 16:36 | 23.02802 | -72.97971 | 30058 ft | 424 kts | 298° |
| 2026-04-21 16:36 | 23.05792 | -73.03497 | 30065 ft | 424 kts | 298° |
| 2026-04-21 16:37 | 23.08320 | -73.08175 | 30061 ft | 424 kts | 298° |
| 2026-04-21 16:37 | 23.11309 | -73.13712 | 30065 ft | 424 kts | 298° |
| 2026-04-21 16:38 | 23.13811 | -73.18351 | 30067 ft | 424 kts | 298° |
| 2026-04-21 16:38 | 23.16797 | -73.23893 | 30064 ft | 425 kts | 298° |
| 2026-04-21 16:39 | 23.19780 | -73.29436 | 30065 ft | 425 kts | 298° |
| 2026-04-21 16:39 | 23.22667 | -73.34806 | 30067 ft | 425 kts | 298° |
| 2026-04-21 16:40 | 23.25647 | -73.40355 | 30070 ft | 425 kts | 298° |
| 2026-04-21 16:40 | 23.28628 | -73.45912 | 30061 ft | 425 kts | 298° |
| 2026-04-21 16:41 | 23.31611 | -73.51480 | 30070 ft | 425 kts | 298° |
| 2026-04-21 16:41 | 23.34588 | -73.57042 | 30062 ft | 426 kts | 298° |
| 2026-04-21 16:42 | 23.37568 | -73.62615 | 30072 ft | 426 kts | 298° |
| 2026-04-21 16:42 | 23.40545 | -73.68191 | 30080 ft | 426 kts | 298° |
| 2026-04-21 16:43 | 23.43528 | -73.73782 | 30078 ft | 426 kts | 298° |
| 2026-04-21 16:43 | 23.46506 | -73.79371 | 30079 ft | 427 kts | 298° |
| 2026-04-21 16:44 | 23.49484 | -73.84968 | 30079 ft | 427 kts | 298° |
| 2026-04-21 16:44 | 23.52459 | -73.90565 | 30085 ft | 427 kts | 298° |
| 2026-04-21 16:45 | 23.55433 | -73.96166 | 30080 ft | 427 kts | 298° |
| 2026-04-21 16:45 | 23.58416 | -74.01787 | 30073 ft | 428 kts | 298° |
| 2026-04-21 16:46 | 23.61395 | -74.07402 | 30076 ft | 428 kts | 298° |
| 2026-04-21 16:46 | 23.64396 | -74.13064 | 30076 ft | 428 kts | 298° |
| 2026-04-21 16:47 | 23.67347 | -74.18640 | 30094 ft | 428 kts | 298° |
| 2026-04-21 16:47 | 23.70305 | -74.24237 | 30090 ft | 428 kts | 298° |
| 2026-04-21 16:48 | 23.73258 | -74.29833 | 30090 ft | 429 kts | 298° |
| 2026-04-21 16:48 | 23.76225 | -74.35459 | 30082 ft | 429 kts | 298° |
| 2026-04-21 16:49 | 23.79218 | -74.41143 | 30090 ft | 429 kts | 298° |
| 2026-04-21 16:49 | 23.82165 | -74.46743 | 30107 ft | 429 kts | 298° |
| 2026-04-21 16:50 | 23.85143 | -74.52411 | 30119 ft | 429 kts | 298° |
| 2026-04-21 16:50 | 23.88039 | -74.57929 | 30097 ft | 429 kts | 298° |
| 2026-04-21 16:51 | 23.91009 | -74.63595 | 30100 ft | 430 kts | 298° |
| 2026-04-21 16:51 | 23.93975 | -74.69257 | 30102 ft | 429 kts | 298° |
| 2026-04-21 16:52 | 23.96814 | -74.74685 | 30106 ft | 429 kts | 298° |
| 2026-04-21 16:52 | 23.99780 | -74.80363 | 30099 ft | 429 kts | 298° |
| 2026-04-21 16:53 | 24.02739 | -74.86033 | 30096 ft | 429 kts | 298° |
| 2026-04-21 16:53 | 24.05701 | -74.91715 | 30108 ft | 429 kts | 298° |
| 2026-04-21 16:54 | 24.08535 | -74.97158 | 30105 ft | 429 kts | 298° |
| 2026-04-21 16:54 | 24.11431 | -75.02727 | 30098 ft | 429 kts | 298° |
| 2026-04-21 16:55 | 24.14404 | -75.08450 | 30104 ft | 429 kts | 298° |
| 2026-04-21 16:55 | 24.17352 | -75.14132 | 30104 ft | 429 kts | 298° |
| 2026-04-21 16:56 | 24.20302 | -75.19825 | 30107 ft | 429 kts | 298° |
| 2026-04-21 16:56 | 24.23245 | -75.25510 | 30097 ft | 429 kts | 298° |
| 2026-04-21 16:57 | 24.25633 | -75.30128 | 30113 ft | 429 kts | 298° |
| 2026-04-21 16:57 | 24.28577 | -75.35827 | 30096 ft | 429 kts | 298° |
| 2026-04-21 16:58 | 24.31531 | -75.41554 | 30106 ft | 428 kts | 297° |
| 2026-04-21 16:58 | 24.34447 | -75.47214 | 30106 ft | 428 kts | 297° |
| 2026-04-21 16:59 | 24.37319 | -75.52792 | 30110 ft | 428 kts | 297° |
| 2026-04-21 16:59 | 24.40234 | -75.58464 | 30106 ft | 428 kts | 297° |
| 2026-04-21 17:00 | 24.43151 | -75.64145 | 30109 ft | 427 kts | 297° |
| 2026-04-21 17:00 | 24.45584 | -75.68889 | 30127 ft | 431 kts | 297° |
| 2026-04-21 17:01 | 24.49056 | -75.75669 | 30112 ft | 438 kts | 297° |
| 2026-04-21 17:01 | 24.52034 | -75.81488 | 30108 ft | 436 kts | 297° |
| 2026-04-21 17:02 | 24.55002 | -75.87293 | 30118 ft | 435 kts | 297° |
| 2026-04-21 17:02 | 24.57910 | -75.92992 | 30117 ft | 435 kts | 297° |
| 2026-04-21 17:03 | 24.60771 | -75.98604 | 30116 ft | 435 kts | 297° |
| 2026-04-21 17:03 | 24.62824 | -76.02635 | 30292 ft | 434 kts | 296° |
| 2026-04-21 17:03 | 24.64184 | -76.05313 | 30112 ft | 434 kts | 297° |
| 2026-04-21 17:04 | 24.65656 | -76.08208 | 30120 ft | 434 kts | 297° |
| 2026-04-21 17:04 | 24.68600 | -76.13999 | 30126 ft | 434 kts | 297° |
| 2026-04-21 17:05 | 24.71519 | -76.19750 | 30120 ft | 434 kts | 297° |
| 2026-04-21 17:05 | 24.74420 | -76.25472 | 30129 ft | 434 kts | 297° |
| 2026-04-21 17:06 | 24.77398 | -76.31355 | 30125 ft | 434 kts | 297° |
| 2026-04-21 17:06 | 24.80292 | -76.37078 | 30130 ft | 434 kts | 297° |
| 2026-04-21 17:07 | 24.83225 | -76.42886 | 30128 ft | 434 kts | 297° |
| 2026-04-21 17:07 | 24.86157 | -76.48700 | 30133 ft | 434 kts | 297° |
| 2026-04-21 17:08 | 24.89069 | -76.54481 | 30132 ft | 434 kts | 297° |
| 2026-04-21 17:08 | 24.92017 | -76.60339 | 30132 ft | 435 kts | 297° |
| 2026-04-21 17:09 | 24.96398 | -76.69060 | 30134 ft | 435 kts | 297° |
| 2026-04-21 17:09 | 24.99324 | -76.74895 | 30132 ft | 435 kts | 297° |
| 2026-04-21 17:10 | 25.02248 | -76.80731 | 30137 ft | 435 kts | 297° |
| 2026-04-21 17:10 | 25.04984 | -76.86199 | 30210 ft | 434 kts | 297° |
| 2026-04-21 17:11 | 25.07829 | -76.91895 | 30217 ft | 435 kts | 297° |
| 2026-04-21 17:11 | 25.10765 | -76.97779 | 30219 ft | 435 kts | 297° |
| 2026-04-21 17:12 | 25.13625 | -77.03516 | 30217 ft | 434 kts | 297° |
| 2026-04-21 17:12 | 25.16424 | -77.09137 | 30221 ft | 434 kts | 297° |
| 2026-04-21 17:13 | 25.19343 | -77.15010 | 30223 ft | 434 kts | 297° |
| 2026-04-21 17:13 | 25.22186 | -77.20736 | 30228 ft | 434 kts | 297° |
| 2026-04-21 17:14 | 25.25102 | -77.26617 | 30227 ft | 433 kts | 297° |
| 2026-04-21 17:14 | 25.27977 | -77.32421 | 30233 ft | 433 kts | 297° |
| 2026-04-21 17:15 | 25.30480 | -77.38500 | 30239 ft | 431 kts | 289° |
| 2026-04-21 17:15 | 25.32452 | -77.44680 | 30237 ft | 431 kts | 289° |
| 2026-04-21 17:16 | 25.34080 | -77.49746 | 30234 ft | 431 kts | 289° |
| 2026-04-21 17:16 | 25.36169 | -77.56193 | 30241 ft | 431 kts | 289° |
| 2026-04-21 17:17 | 25.37826 | -77.61299 | 30228 ft | 431 kts | 289° |
| 2026-04-21 17:17 | 25.39928 | -77.67788 | 30231 ft | 431 kts | 289° |
| 2026-04-21 17:18 | 25.41979 | -77.74131 | 30231 ft | 431 kts | 289° |
| 2026-04-21 17:18 | 25.43780 | -77.80124 | 30240 ft | 431 kts | 286° |
| 2026-04-21 17:19 | 25.45392 | -77.86546 | 30235 ft | 431 kts | 285° |
| 2026-04-21 17:19 | 25.46983 | -77.93057 | 30235 ft | 431 kts | 285° |
| 2026-04-21 17:20 | 25.48566 | -77.99467 | 30239 ft | 431 kts | 285° |
| 2026-04-21 17:20 | 25.50166 | -78.05893 | 30241 ft | 432 kts | 285° |
| 2026-04-21 17:21 | 25.51502 | -78.11255 | 30237 ft | 432 kts | 285° |
| 2026-04-21 17:21 | 25.53111 | -78.17721 | 30245 ft | 432 kts | 285° |
| 2026-04-21 17:22 | 25.54718 | -78.24197 | 30244 ft | 433 kts | 285° |
| 2026-04-21 17:22 | 25.56313 | -78.30636 | 30244 ft | 433 kts | 285° |
| 2026-04-21 17:23 | 25.57648 | -78.36037 | 30241 ft | 433 kts | 285° |
| 2026-04-21 17:23 | 25.59241 | -78.42490 | 30244 ft | 434 kts | 285° |
| 2026-04-21 17:24 | 25.60459 | -78.47438 | 30244 ft | 434 kts | 285° |
| 2026-04-21 17:24 | 25.62048 | -78.53899 | 30243 ft | 434 kts | 285° |
| 2026-04-21 17:25 | 25.63616 | -78.60290 | 30248 ft | 434 kts | 285° |
| 2026-04-21 17:25 | 25.65201 | -78.66765 | 30249 ft | 435 kts | 285° |
| 2026-04-21 17:26 | 25.66785 | -78.73247 | 30299 ft | 437 kts | 285° |
| 2026-04-21 17:26 | 25.68351 | -78.79667 | 30257 ft | 439 kts | 285° |
| 2026-04-21 17:27 | 25.69969 | -78.86315 | 30246 ft | 440 kts | 285° |
| 2026-04-21 17:27 | 25.71559 | -78.92863 | 30251 ft | 440 kts | 285° |
| 2026-04-21 17:28 | 25.73110 | -78.99267 | 30247 ft | 440 kts | 285° |
| 2026-04-21 17:28 | 25.74695 | -79.05821 | 30251 ft | 440 kts | 285° |
| 2026-04-21 17:29 | 25.76278 | -79.12382 | 30255 ft | 440 kts | 285° |
| 2026-04-21 17:29 | 25.77854 | -79.18925 | 30252 ft | 440 kts | 285° |
| 2026-04-21 17:30 | 25.79441 | -79.25531 | 30250 ft | 440 kts | 285° |
| 2026-04-21 17:30 | 25.81013 | -79.32088 | 30255 ft | 440 kts | 285° |
| 2026-04-21 17:31 | 25.82592 | -79.38689 | 30256 ft | 440 kts | 285° |
| 2026-04-21 17:31 | 25.84159 | -79.45254 | 30251 ft | 440 kts | 285° |
| 2026-04-21 17:32 | 25.85723 | -79.51819 | 30258 ft | 439 kts | 285° |
| 2026-04-21 17:32 | 25.87291 | -79.58416 | 30255 ft | 439 kts | 285° |
| 2026-04-21 17:33 | 25.88880 | -79.65119 | 30255 ft | 440 kts | 285° |
| 2026-04-21 17:33 | 25.90429 | -79.71666 | 30257 ft | 440 kts | 285° |
| 2026-04-21 17:34 | 25.91611 | -79.76642 | 30256 ft | 439 kts | 287° |
| 2026-04-21 17:34 | 25.94043 | -79.82884 | 30256 ft | 439 kts | 301° |
| 2026-04-21 17:35 | 25.97169 | -79.88353 | 30258 ft | 439 kts | 302° |
| 2026-04-21 17:35 | 26.00463 | -79.94135 | 30261 ft | 438 kts | 302° |
| 2026-04-21 17:36 | 26.03800 | -80.00069 | 30259 ft | 438 kts | 301° |
| 2026-04-21 17:36 | 26.06826 | -80.05477 | 30258 ft | 438 kts | 301° |
| 2026-04-21 17:37 | 26.09502 | -80.10266 | 30259 ft | 438 kts | 301° |
| 2026-04-21 17:37 | 26.10233 | -80.11575 | 30261 ft | 438 kts | 302° |
| 2026-04-21 17:38 | 26.13691 | -80.17768 | 30268 ft | 438 kts | 302° |
| 2026-04-21 17:38 | 26.16278 | -80.22527 | 30267 ft | 438 kts | 300° |
| 2026-04-21 17:39 | 26.19192 | -80.28532 | 30268 ft | 438 kts | 298° |
| 2026-04-21 17:39 | 26.21543 | -80.33504 | 30265 ft | 437 kts | 298° |
| 2026-04-21 17:40 | 26.24152 | -80.38977 | 30266 ft | 437 kts | 298° |
| 2026-04-21 17:40 | 26.26560 | -80.43988 | 30266 ft | 437 kts | 298° |
| 2026-04-21 17:41 | 26.29411 | -80.49905 | 30265 ft | 437 kts | 298° |
| 2026-04-21 17:41 | 26.32282 | -80.55869 | 30263 ft | 437 kts | 298° |
| 2026-04-21 17:42 | 26.35159 | -80.61853 | 30260 ft | 437 kts | 298° |
| 2026-04-21 17:42 | 26.38058 | -80.67894 | 30263 ft | 437 kts | 298° |
| 2026-04-21 17:43 | 26.40938 | -80.73902 | 30266 ft | 437 kts | 298° |
| 2026-04-21 17:43 | 26.43804 | -80.79890 | 30264 ft | 437 kts | 298° |
| 2026-04-21 17:44 | 26.46666 | -80.85878 | 30261 ft | 437 kts | 298° |
| 2026-04-21 17:44 | 26.49520 | -80.91857 | 30263 ft | 437 kts | 298° |
| 2026-04-21 17:45 | 26.52302 | -80.97695 | 30269 ft | 437 kts | 298° |
| 2026-04-21 17:45 | 26.55160 | -81.03701 | 30262 ft | 437 kts | 298° |
| 2026-04-21 17:46 | 26.58024 | -81.09726 | 29724 ft | 441 kts | 298° |
| 2026-04-21 17:46 | 26.59462 | -81.12755 | 29331 ft | 440 kts | 298° |
| 2026-04-21 17:46 | 26.60896 | -81.15778 | 28920 ft | 442 kts | 298° |
| 2026-04-21 17:47 | 26.62363 | -81.18871 | 28274 ft | 447 kts | 298° |
| 2026-04-21 17:47 | 26.63842 | -81.21885 | 27649 ft | 450 kts | 302° |
| 2026-04-21 17:47 | 26.65689 | -81.24716 | 27035 ft | 452 kts | 308° |
| 2026-04-21 17:47 | 26.67681 | -81.27444 | 26421 ft | 454 kts | 309° |
| 2026-04-21 17:48 | 26.69060 | -81.29287 | 26024 ft | 455 kts | 309° |
| 2026-04-21 17:48 | 26.71768 | -81.32912 | 25241 ft | 456 kts | 309° |
| 2026-04-21 17:48 | 26.73771 | -81.35625 | 24662 ft | 449 kts | 308° |
| 2026-04-21 17:48 | 26.75747 | -81.38335 | 24101 ft | 443 kts | 308° |
| 2026-04-21 17:49 | 26.77676 | -81.41004 | 23483 ft | 440 kts | 308° |
| 2026-04-21 17:49 | 26.79581 | -81.43655 | 22836 ft | 442 kts | 307° |
| 2026-04-21 17:49 | 26.81527 | -81.46372 | 22187 ft | 443 kts | 308° |
| 2026-04-21 17:49 | 26.83487 | -81.49110 | 21393 ft | 440 kts | 308° |
| 2026-04-21 17:50 | 26.85392 | -81.51769 | 20340 ft | 442 kts | 308° |
| 2026-04-21 17:50 | 26.87328 | -81.54475 | 19793 ft | 432 kts | 308° |
| 2026-04-21 17:50 | 26.89215 | -81.57110 | 19143 ft | 425 kts | 308° |
| 2026-04-21 17:50 | 26.91124 | -81.59778 | 18214 ft | 424 kts | 308° |
| 2026-04-21 17:51 | 26.92971 | -81.62363 | 17382 ft | 420 kts | 308° |
| 2026-04-21 17:51 | 26.94190 | -81.64069 | 17192 ft | 410 kts | 308° |
| 2026-04-21 17:51 | 26.96012 | -81.66620 | 16705 ft | 398 kts | 308° |
| 2026-04-21 17:51 | 26.97803 | -81.69130 | 16044 ft | 394 kts | 308° |
| 2026-04-21 17:52 | 26.99444 | -81.71432 | 15456 ft | 391 kts | 308° |
| 2026-04-21 17:52 | 27.01110 | -81.73770 | 14831 ft | 388 kts | 309° |
| 2026-04-21 17:52 | 27.02804 | -81.76150 | 14067 ft | 390 kts | 309° |
| 2026-04-21 17:52 | 27.04508 | -81.78541 | 13139 ft | 395 kts | 309° |
| 2026-04-21 17:53 | 27.06179 | -81.80889 | 12497 ft | 392 kts | 309° |
| 2026-04-21 17:53 | 27.07962 | -81.83318 | 12286 ft | 382 kts | 313° |
| 2026-04-21 17:53 | 27.09951 | -81.85373 | 12171 ft | 393 kts | 322° |
| 2026-04-21 17:53 | 27.12135 | -81.87206 | 12067 ft | 392 kts | 324° |
| 2026-04-21 17:54 | 27.14346 | -81.89037 | 12017 ft | 393 kts | 324° |
| 2026-04-21 17:54 | 27.16559 | -81.90874 | 12001 ft | 389 kts | 323° |
| 2026-04-21 17:54 | 27.18663 | -81.92634 | 12028 ft | 391 kts | 323° |
| 2026-04-21 17:54 | 27.20932 | -81.94544 | 11621 ft | 400 kts | 323° |
| 2026-04-21 17:55 | 27.23158 | -81.96424 | 11221 ft | 382 kts | 323° |
| 2026-04-21 17:55 | 27.25250 | -81.98196 | 11103 ft | 373 kts | 323° |
| 2026-04-21 17:55 | 27.27357 | -81.99984 | 11038 ft | 368 kts | 323° |
| 2026-04-21 17:55 | 27.29380 | -82.01701 | 11018 ft | 368 kts | 323° |
| 2026-04-21 17:56 | 27.31546 | -82.03542 | 11004 ft | 369 kts | 323° |
| 2026-04-21 17:56 | 27.33492 | -82.05195 | 11018 ft | 369 kts | 323° |
| 2026-04-21 17:56 | 27.35571 | -82.06961 | 11028 ft | 376 kts | 323° |
| 2026-04-21 17:56 | 27.37632 | -82.08726 | 11011 ft | 372 kts | 322° |
| 2026-04-21 17:57 | 27.39667 | -82.10600 | 10995 ft | 374 kts | 321° |
| 2026-04-21 17:57 | 27.41666 | -82.12489 | 11021 ft | 372 kts | 320° |
| 2026-04-21 17:57 | 27.43693 | -82.14395 | 11003 ft | 375 kts | 321° |
| 2026-04-21 17:57 | 27.45686 | -82.16353 | 11020 ft | 374 kts | 317° |
| 2026-04-21 17:58 | 27.47549 | -82.18372 | 11006 ft | 374 kts | 316° |
| 2026-04-21 17:58 | 27.48805 | -82.19776 | 11001 ft | 374 kts | 316° |
| 2026-04-21 17:58 | 27.51229 | -82.22495 | 10621 ft | 361 kts | 316° |
| 2026-04-21 17:58 | 27.52814 | -82.24258 | 10064 ft | 351 kts | 316° |
| 2026-04-21 17:59 | 27.54240 | -82.25835 | 9511 ft | 343 kts | 317° |
| 2026-04-21 17:59 | 27.55857 | -82.27614 | 8883 ft | 337 kts | 317° |
| 2026-04-21 17:59 | 27.56927 | -82.28789 | 8461 ft | 333 kts | 317° |
| 2026-04-21 17:59 | 27.59138 | -82.31217 | 7613 ft | 326 kts | 317° |
| 2026-04-21 18:00 | 27.60831 | -82.33076 | 6950 ft | 324 kts | 319° |
| 2026-04-21 18:00 | 27.62416 | -82.34815 | 6231 ft | 323 kts | 319° |
| 2026-04-21 18:00 | 27.64034 | -82.36587 | 5545 ft | 324 kts | 318° |
| 2026-04-21 18:00 | 27.65085 | -82.37743 | 5297 ft | 316 kts | 319° |
| 2026-04-21 18:01 | 27.67096 | -82.39957 | 5086 ft | 293 kts | 319° |
| 2026-04-21 18:01 | 27.68110 | -82.41098 | 5038 ft | 280 kts | 314° |
| 2026-04-21 18:01 | 27.69013 | -82.42908 | 4999 ft | 269 kts | 288° |
| 2026-04-21 18:01 | 27.69318 | -82.45078 | 4815 ft | 260 kts | 273° |
| 2026-04-21 18:02 | 27.69414 | -82.46966 | 4643 ft | 249 kts | 282° |
| 2026-04-21 18:02 | 27.70291 | -82.48762 | 4217 ft | 232 kts | 321° |
| 2026-04-21 18:02 | 27.71423 | -82.49782 | 3897 ft | 217 kts | 329° |
| 2026-04-21 18:02 | 27.72655 | -82.50757 | 3521 ft | 204 kts | 330° |
| 2026-04-21 18:03 | 27.73768 | -82.51634 | 3162 ft | 193 kts | 330° |
| 2026-04-21 18:03 | 27.74874 | -82.52513 | 3066 ft | 189 kts | 330° |
| 2026-04-21 18:03 | 27.75809 | -82.53259 | 2981 ft | 181 kts | 330° |
| 2026-04-21 18:03 | 27.76845 | -82.54093 | 2975 ft | 168 kts | 331° |
| 2026-04-21 18:04 | 27.77867 | -82.54567 | 2976 ft | 152 kts | 6° |
| 2026-04-21 18:04 | 27.78975 | -82.54631 | 2980 ft | 158 kts | 1° |
| 2026-04-21 18:04 | 27.80169 | -82.54722 | 3004 ft | 158 kts | 6° |
| 2026-04-21 18:04 | 27.81211 | -82.54731 | 2959 ft | 157 kts | 7° |
| 2026-04-21 18:05 | 27.82269 | -82.54709 | 2766 ft | 155 kts | 8° |
| 2026-04-21 18:05 | 27.83359 | -82.54677 | 2552 ft | 153 kts | 9° |
| 2026-04-21 18:05 | 27.84372 | -82.54643 | 2381 ft | 153 kts | 8° |
| 2026-04-21 18:05 | 27.85357 | -82.54609 | 2202 ft | 154 kts | 9° |
| 2026-04-21 18:06 | 27.86446 | -82.54583 | 2021 ft | 160 kts | 8° |
| 2026-04-21 18:06 | 27.87249 | -82.54551 | 1798 ft | 152 kts | 8° |
| 2026-04-21 18:06 | 27.88262 | -82.54515 | 1624 ft | 145 kts | 9° |
| 2026-04-21 18:06 | 27.89313 | -82.54475 | 1444 ft | 154 kts | 8° |
| 2026-04-21 18:07 | 27.90328 | -82.54441 | 1246 ft | 149 kts | 8° |
| 2026-04-21 18:07 | 27.91366 | -82.54406 | 1061 ft | 146 kts | 8° |
| 2026-04-21 18:07 | 27.92350 | -82.54373 | 843 ft | 138 kts | 8° |
| 2026-04-21 18:07 | 27.92999 | -82.54355 | 751 ft | 137 kts | 4° |
| 2026-04-21 18:08 | 27.94073 | -82.54364 | 462 ft | 138 kts | 7° |
| 2026-04-21 18:08 | 27.94384 | -82.54365 | 451 ft | 136 kts | 7° |
| 2026-04-21 18:08 | 27.95168 | -82.54339 | 304 ft | 140 kts | 7° |
| 2026-04-21 18:08 | 27.95861 | -82.54269 | 198 ft | 142 kts | 4° |
| 2026-04-21 18:09 | 27.96027 | -82.54254 | 180 ft | 141 kts | 4° |
| 2026-04-21 18:09 | 27.97291 | -82.54213 | 57 ft | 138 kts | 1° |
| 2026-04-21 18:09 | 27.97889 | -82.54193 | 46 ft | 108 kts | 1° |
| 2026-04-21 18:09 | 27.98296 | -82.54112 | 47 ft | 38 kts | 51° |
| 2026-04-21 18:10 | 27.98334 | -82.54030 | 47 ft | 18 kts | 73° |
| 2026-04-21 18:10 | 27.98336 | -82.54016 | 45 ft | 2 kts | 83° |
| 2026-04-21 18:10 | 27.98302 | -82.53965 | 46 ft | 15 kts | 167° |
| 2026-04-21 18:10 | 27.98212 | -82.53921 | 43 ft | 19 kts | 102° |
| 2026-04-21 18:11 | 27.98184 | -82.53771 | 42 ft | 16 kts | 124° |
| 2026-04-21 18:11 | 27.98155 | -82.53730 | 42 ft | 3 kts | 161° |
| 2026-04-21 18:11 | 27.98136 | -82.53734 | 41 ft | 3 kts | 195° |
| 2026-04-21 18:11 | 27.98124 | -82.53738 | 42 ft | 3 kts | 196° |
| 2026-04-21 18:12 | 27.98104 | -82.53748 | 42 ft | 3 kts | 203° |
| 2026-04-21 18:12 | 27.98093 | -82.53753 | 42 ft | 0 kts | 204° |